sensor_id;sensor_type;location;lat;lon;timestamp;temperature;humidity
8313;DHT22;4194;43.408;24.626;2023-07-13T00:02:15;25.60;99.90
8313;DHT22;4194;43.408;24.626;2023-07-13T00:04:41;25.50;99.90
8313;DHT22;4194;43.408;24.626;2023-07-13T00:07:08;25.30;99.90
8313;DHT22;4194;43.408;24.626;2023-07-13T00:09:34;25.60;99.90
8313;DHT22;4194;43.408;24.626;2023-07-13T00:12:00;24.70;99.90
8313;DHT22;4194;43.408;24.626;2023-07-13T00:14:27;25.40;99.90
8313;DHT22;4194;43.408;24.626;2023-07-13T00:19:20;25.00;99.90
8313;DHT22;4194;43.408;24.626;2023-07-13T00:21:45;24.80;99.90
8313;DHT22;4194;43.408;24.626;2023-07-13T00:24:13;25.50;99.90
8313;DHT22;4194;43.408;24.626;2023-07-13T00:26:40;25.30;99.90
8313;DHT22;4194;43.408;24.626;2023-07-13T00:29:06;25.40;99.90
8313;DHT22;4194;43.408;24.626;2023-07-13T00:31:34;25.70;99.90
8313;DHT22;4194;43.408;24.626;2023-07-13T00:38:52;26.30;99.90
8313;DHT22;4194;43.408;24.626;2023-07-13T00:43:44;25.30;99.90
8313;DHT22;4194;43.408;24.626;2023-07-13T00:46:13;25.70;99.90
8313;DHT22;4194;43.408;24.626;2023-07-13T00:48:39;25.30;99.90
8313;DHT22;4194;43.408;24.626;2023-07-13T00:51:06;25.30;99.90
8313;DHT22;4194;43.408;24.626;2023-07-13T00:53:33;25.30;99.90
8313;DHT22;4194;43.408;24.626;2023-07-13T00:55:59;24.30;99.90
8313;DHT22;4194;43.408;24.626;2023-07-13T00:58:25;24.70;99.90
8313;DHT22;4194;43.408;24.626;2023-07-13T01:00:52;25.30;99.90
8313;DHT22;4194;43.408;24.626;2023-07-13T01:03:19;25.10;99.90
8313;DHT22;4194;43.408;24.626;2023-07-13T01:05:47;25.10;99.90
8313;DHT22;4194;43.408;24.626;2023-07-13T01:08:14;25.00;99.90
8313;DHT22;4194;43.408;24.626;2023-07-13T01:10:39;25.80;99.90
8313;DHT22;4194;43.408;24.626;2023-07-13T01:13:07;25.30;99.90
8313;DHT22;4194;43.408;24.626;2023-07-13T01:15:47;25.50;99.90
8313;DHT22;4194;43.408;24.626;2023-07-13T01:18:20;25.20;99.90
8313;DHT22;4194;43.408;24.626;2023-07-13T01:20:57;25.80;99.90
8313;DHT22;4194;43.408;24.626;2023-07-13T01:23:24;25.00;99.90
8313;DHT22;4194;43.408;24.626;2023-07-13T01:25:50;24.70;99.90
8313;DHT22;4194;43.408;24.626;2023-07-13T01:28:17;25.80;99.90
8313;DHT22;4194;43.408;24.626;2023-07-13T01:30:44;25.90;99.90
8313;DHT22;4194;43.408;24.626;2023-07-13T01:33:16;25.50;99.90
8313;DHT22;4194;43.408;24.626;2023-07-13T01:35:43;24.70;99.90
8313;DHT22;4194;43.408;24.626;2023-07-13T01:38:09;25.00;99.90
8313;DHT22;4194;43.408;24.626;2023-07-13T01:40:37;24.30;99.90
8313;DHT22;4194;43.408;24.626;2023-07-13T01:43:03;25.50;99.90
8313;DHT22;4194;43.408;24.626;2023-07-13T01:45:28;24.80;99.90
8313;DHT22;4194;43.408;24.626;2023-07-13T01:47:54;25.10;99.90
8313;DHT22;4194;43.408;24.626;2023-07-13T01:50:20;25.60;99.90
8313;DHT22;4194;43.408;24.626;2023-07-13T01:52:46;24.10;99.90
8313;DHT22;4194;43.408;24.626;2023-07-13T01:55:12;25.00;99.90
8313;DHT22;4194;43.408;24.626;2023-07-13T01:57:39;23.70;99.90
8313;DHT22;4194;43.408;24.626;2023-07-13T02:00:06;25.30;99.90
8313;DHT22;4194;43.408;24.626;2023-07-13T02:02:32;25.80;99.90
8313;DHT22;4194;43.408;24.626;2023-07-13T02:04:58;24.90;99.90
8313;DHT22;4194;43.408;24.626;2023-07-13T02:07:24;25.20;99.90
8313;DHT22;4194;43.408;24.626;2023-07-13T02:14:42;24.70;99.90
8313;DHT22;4194;43.408;24.626;2023-07-13T02:17:10;24.90;99.90
8313;DHT22;4194;43.408;24.626;2023-07-13T02:19:36;25.00;99.90
8313;DHT22;4194;43.408;24.626;2023-07-13T02:22:02;25.10;99.90
8313;DHT22;4194;43.408;24.626;2023-07-13T02:24:28;24.80;99.90
8313;DHT22;4194;43.408;24.626;2023-07-13T02:26:54;25.10;99.90
8313;DHT22;4194;43.408;24.626;2023-07-13T02:29:19;25.10;99.90
8313;DHT22;4194;43.408;24.626;2023-07-13T02:31:45;25.30;99.90
8313;DHT22;4194;43.408;24.626;2023-07-13T02:34:11;25.00;99.90
8313;DHT22;4194;43.408;24.626;2023-07-13T02:36:36;25.60;99.90
8313;DHT22;4194;43.408;24.626;2023-07-13T02:39:04;25.10;99.90
8313;DHT22;4194;43.408;24.626;2023-07-13T02:41:29;24.50;99.90
8313;DHT22;4194;43.408;24.626;2023-07-13T02:46:36;25.30;99.90
8313;DHT22;4194;43.408;24.626;2023-07-13T02:49:03;25.70;99.90
8313;DHT22;4194;43.408;24.626;2023-07-13T02:51:29;24.50;99.90
8313;DHT22;4194;43.408;24.626;2023-07-13T02:53:55;24.70;99.90
8313;DHT22;4194;43.408;24.626;2023-07-13T02:56:25;24.50;99.90
8313;DHT22;4194;43.408;24.626;2023-07-13T02:58:51;23.60;99.90
8313;DHT22;4194;43.408;24.626;2023-07-13T03:01:17;23.20;99.90
8313;DHT22;4194;43.408;24.626;2023-07-13T03:03:45;23.10;99.90
8313;DHT22;4194;43.408;24.626;2023-07-13T03:06:12;23.70;99.90
8313;DHT22;4194;43.408;24.626;2023-07-13T03:08:37;25.20;99.90
8313;DHT22;4194;43.408;24.626;2023-07-13T03:11:07;23.80;99.90
8313;DHT22;4194;43.408;24.626;2023-07-13T03:13:33;23.70;99.90
8313;DHT22;4194;43.408;24.626;2023-07-13T03:15:59;23.60;99.90
8313;DHT22;4194;43.408;24.626;2023-07-13T03:18:27;24.60;99.90
8313;DHT22;4194;43.408;24.626;2023-07-13T03:20:53;23.30;99.90
8313;DHT22;4194;43.408;24.626;2023-07-13T03:23:19;25.10;99.90
8313;DHT22;4194;43.408;24.626;2023-07-13T03:25:45;24.80;99.90
8313;DHT22;4194;43.408;24.626;2023-07-13T03:28:12;24.90;99.90
8313;DHT22;4194;43.408;24.626;2023-07-13T03:30:38;23.00;99.90
8313;DHT22;4194;43.408;24.626;2023-07-13T03:33:04;23.40;99.90
8313;DHT22;4194;43.408;24.626;2023-07-13T03:37:58;24.50;99.90
8313;DHT22;4194;43.408;24.626;2023-07-13T03:40:25;24.40;99.90
8313;DHT22;4194;43.408;24.626;2023-07-13T03:42:52;24.50;99.90
8313;DHT22;4194;43.408;24.626;2023-07-13T03:45:17;23.90;99.90
8313;DHT22;4194;43.408;24.626;2023-07-13T03:47:43;24.60;99.90
8313;DHT22;4194;43.408;24.626;2023-07-13T03:52:35;24.10;99.90
8313;DHT22;4194;43.408;24.626;2023-07-13T03:55:01;25.90;99.90
8313;DHT22;4194;43.408;24.626;2023-07-13T03:57:26;24.80;99.90
8313;DHT22;4194;43.408;24.626;2023-07-13T03:59:52;25.30;99.90
8313;DHT22;4194;43.408;24.626;2023-07-13T04:02:18;25.20;99.90
8313;DHT22;4194;43.408;24.626;2023-07-13T04:04:44;25.60;99.90
8313;DHT22;4194;43.408;24.626;2023-07-13T04:07:09;24.90;99.90
8313;DHT22;4194;43.408;24.626;2023-07-13T04:09:35;25.40;99.90
8313;DHT22;4194;43.408;24.626;2023-07-13T04:12:01;25.60;99.90
8313;DHT22;4194;43.408;24.626;2023-07-13T04:14:27;26.50;99.90
8313;DHT22;4194;43.408;24.626;2023-07-13T04:16:53;26.40;99.90
8313;DHT22;4194;43.408;24.626;2023-07-13T04:19:20;24.50;99.90
8313;DHT22;4194;43.408;24.626;2023-07-13T04:21:46;25.30;99.90
8313;DHT22;4194;43.408;24.626;2023-07-13T04:24:12;25.60;99.90
8313;DHT22;4194;43.408;24.626;2023-07-13T04:26:38;25.50;99.90
8313;DHT22;4194;43.408;24.626;2023-07-13T04:29:05;27.00;99.90
8313;DHT22;4194;43.408;24.626;2023-07-13T04:31:31;25.60;99.90
8313;DHT22;4194;43.408;24.626;2023-07-13T04:33:57;25.50;99.90
8313;DHT22;4194;43.408;24.626;2023-07-13T04:38:52;26.80;99.90
8313;DHT22;4194;43.408;24.626;2023-07-13T04:41:20;27.00;99.90
8313;DHT22;4194;43.408;24.626;2023-07-13T04:43:46;27.00;99.90
8313;DHT22;4194;43.408;24.626;2023-07-13T04:46:15;24.90;99.90
8313;DHT22;4194;43.408;24.626;2023-07-13T04:48:42;25.80;99.90
8313;DHT22;4194;43.408;24.626;2023-07-13T04:51:08;25.60;99.70
8313;DHT22;4194;43.408;24.626;2023-07-13T04:53:34;26.60;99.60
8313;DHT22;4194;43.408;24.626;2023-07-13T04:56:00;26.70;98.60
8313;DHT22;4194;43.408;24.626;2023-07-13T04:58:26;27.60;98.00
8313;DHT22;4194;43.408;24.626;2023-07-13T05:00:53;26.80;97.40
8313;DHT22;4194;43.408;24.626;2023-07-13T05:03:19;26.90;96.10
8313;DHT22;4194;43.408;24.626;2023-07-13T05:05:58;25.80;95.60
8313;DHT22;4194;43.408;24.626;2023-07-13T05:10:51;27.30;95.30
8313;DHT22;4194;43.408;24.626;2023-07-13T05:13:17;27.40;95.50
8313;DHT22;4194;43.408;24.626;2023-07-13T05:15:43;26.80;94.70
8313;DHT22;4194;43.408;24.626;2023-07-13T05:20:35;27.90;94.30
8313;DHT22;4194;43.408;24.626;2023-07-13T05:23:00;27.00;93.90
8313;DHT22;4194;43.408;24.626;2023-07-13T05:25:26;27.90;94.50
8313;DHT22;4194;43.408;24.626;2023-07-13T05:27:52;28.10;94.70
8313;DHT22;4194;43.408;24.626;2023-07-13T05:30:17;28.10;93.70
8313;DHT22;4194;43.408;24.626;2023-07-13T05:35:09;28.80;93.00
8313;DHT22;4194;43.408;24.626;2023-07-13T05:37:36;28.60;92.30
8313;DHT22;4194;43.408;24.626;2023-07-13T05:40:02;29.00;92.20
8313;DHT22;4194;43.408;24.626;2023-07-13T05:42:28;29.10;92.40
8313;DHT22;4194;43.408;24.626;2023-07-13T05:44:53;27.60;91.20
8313;DHT22;4194;43.408;24.626;2023-07-13T05:47:19;29.40;90.90
8313;DHT22;4194;43.408;24.626;2023-07-13T05:49:45;29.50;89.60
8313;DHT22;4194;43.408;24.626;2023-07-13T05:52:10;29.60;89.40
8313;DHT22;4194;43.408;24.626;2023-07-13T05:57:02;29.70;87.10
8313;DHT22;4194;43.408;24.626;2023-07-13T05:59:28;29.00;86.00
8313;DHT22;4194;43.408;24.626;2023-07-13T06:01:54;29.30;86.30
8313;DHT22;4194;43.408;24.626;2023-07-13T06:04:19;29.10;86.00
8313;DHT22;4194;43.408;24.626;2023-07-13T06:06:45;29.70;86.70
8313;DHT22;4194;43.408;24.626;2023-07-13T06:09:11;29.90;82.60
8313;DHT22;4194;43.408;24.626;2023-07-13T06:11:37;30.20;80.20
8313;DHT22;4194;43.408;24.626;2023-07-13T06:14:02;30.40;76.10
8313;DHT22;4194;43.408;24.626;2023-07-13T06:16:29;30.90;74.80
8313;DHT22;4194;43.408;24.626;2023-07-13T06:18:55;31.20;73.60
8313;DHT22;4194;43.408;24.626;2023-07-13T06:21:22;31.70;73.10
8313;DHT22;4194;43.408;24.626;2023-07-13T06:23:49;30.70;71.60
8313;DHT22;4194;43.408;24.626;2023-07-13T06:26:19;30.50;71.40
8313;DHT22;4194;43.408;24.626;2023-07-13T06:28:45;30.70;71.30
8313;DHT22;4194;43.408;24.626;2023-07-13T06:31:12;30.90;72.20
8313;DHT22;4194;43.408;24.626;2023-07-13T06:33:38;32.20;72.50
8313;DHT22;4194;43.408;24.626;2023-07-13T06:36:05;31.90;71.30
8313;DHT22;4194;43.408;24.626;2023-07-13T06:38:31;32.30;70.10
8313;DHT22;4194;43.408;24.626;2023-07-13T06:40:57;31.40;68.80
8313;DHT22;4194;43.408;24.626;2023-07-13T06:43:23;31.90;69.00
8313;DHT22;4194;43.408;24.626;2023-07-13T06:45:50;31.40;68.50
8313;DHT22;4194;43.408;24.626;2023-07-13T06:48:17;32.30;67.90
8313;DHT22;4194;43.408;24.626;2023-07-13T06:50:44;32.10;68.10
8313;DHT22;4194;43.408;24.626;2023-07-13T06:53:11;33.20;68.70
8313;DHT22;4194;43.408;24.626;2023-07-13T06:55:37;31.90;66.90
8313;DHT22;4194;43.408;24.626;2023-07-13T06:58:02;31.90;66.70
8313;DHT22;4194;43.408;24.626;2023-07-13T07:00:28;32.50;67.00
8313;DHT22;4194;43.408;24.626;2023-07-13T07:02:54;32.90;66.10
8313;DHT22;4194;43.408;24.626;2023-07-13T11:36:59;45.40;40.50
8313;DHT22;4194;43.408;24.626;2023-07-13T11:39:29;45.00;40.70
8313;DHT22;4194;43.408;24.626;2023-07-13T11:41:59;43.80;40.70
8313;DHT22;4194;43.408;24.626;2023-07-13T11:44:28;44.20;40.60
8313;DHT22;4194;43.408;24.626;2023-07-13T11:46:59;44.50;39.40
8313;DHT22;4194;43.408;24.626;2023-07-13T11:49:28;45.20;39.60
8313;DHT22;4194;43.408;24.626;2023-07-13T11:51:55;45.00;39.80
8313;DHT22;4194;43.408;24.626;2023-07-13T11:54:34;44.50;38.70
8313;DHT22;4194;43.408;24.626;2023-07-13T11:57:24;45.80;38.30
8313;DHT22;4194;43.408;24.626;2023-07-13T11:59:52;43.00;37.20
8313;DHT22;4194;43.408;24.626;2023-07-13T12:02:31;44.10;38.70
8313;DHT22;4194;43.408;24.626;2023-07-13T12:04:59;43.90;38.50
8313;DHT22;4194;43.408;24.626;2023-07-13T12:07:29;44.20;39.40
8313;DHT22;4194;43.408;24.626;2023-07-13T12:10:02;44.50;38.50
8313;DHT22;4194;43.408;24.626;2023-07-13T12:12:29;45.50;37.20
8313;DHT22;4194;43.408;24.626;2023-07-13T12:14:55;46.10;37.50
8313;DHT22;4194;43.408;24.626;2023-07-13T12:17:24;45.30;38.70
8313;DHT22;4194;43.408;24.626;2023-07-13T12:19:51;46.00;35.70
8313;DHT22;4194;43.408;24.626;2023-07-13T12:22:19;46.40;36.00
8313;DHT22;4194;43.408;24.626;2023-07-13T12:24:46;46.60;36.00
8313;DHT22;4194;43.408;24.626;2023-07-13T12:27:19;47.00;35.30
8313;DHT22;4194;43.408;24.626;2023-07-13T12:30:00;47.10;34.40
8313;DHT22;4194;43.408;24.626;2023-07-13T12:32:27;47.50;34.60
8313;DHT22;4194;43.408;24.626;2023-07-13T12:35:15;47.20;34.30
8313;DHT22;4194;43.408;24.626;2023-07-13T12:37:42;46.70;34.90
8313;DHT22;4194;43.408;24.626;2023-07-13T12:40:20;48.30;34.50
8313;DHT22;4194;43.408;24.626;2023-07-13T12:42:48;48.30;33.90
8313;DHT22;4194;43.408;24.626;2023-07-13T12:47:46;48.90;34.00
8313;DHT22;4194;43.408;24.626;2023-07-13T12:50:17;49.30;33.60
8313;DHT22;4194;43.408;24.626;2023-07-13T12:52:44;48.70;33.60
8313;DHT22;4194;43.408;24.626;2023-07-13T12:55:17;49.80;33.80
8313;DHT22;4194;43.408;24.626;2023-07-13T12:57:58;49.10;31.10
8313;DHT22;4194;43.408;24.626;2023-07-13T13:02:53;49.10;31.00
8313;DHT22;4194;43.408;24.626;2023-07-13T13:05:21;50.00;31.30
8313;DHT22;4194;43.408;24.626;2023-07-13T13:07:49;50.50;31.40
8313;DHT22;4194;43.408;24.626;2023-07-13T13:10:15;50.20;32.00
8313;DHT22;4194;43.408;24.626;2023-07-13T13:12:41;49.80;31.50
8313;DHT22;4194;43.408;24.626;2023-07-13T13:15:09;48.90;31.20
8313;DHT22;4194;43.408;24.626;2023-07-13T13:17:35;49.80;31.70
8313;DHT22;4194;43.408;24.626;2023-07-13T13:20:01;51.10;32.50
8313;DHT22;4194;43.408;24.626;2023-07-13T13:22:27;50.90;32.20
8313;DHT22;4194;43.408;24.626;2023-07-13T13:24:52;49.70;30.00
8313;DHT22;4194;43.408;24.626;2023-07-13T13:27:21;51.90;31.50
8313;DHT22;4194;43.408;24.626;2023-07-13T13:29:50;52.20;30.80
8313;DHT22;4194;43.408;24.626;2023-07-13T13:32:19;52.10;30.40
8313;DHT22;4194;43.408;24.626;2023-07-13T13:34:45;52.20;29.80
8313;DHT22;4194;43.408;24.626;2023-07-13T13:37:20;51.80;29.50
8313;DHT22;4194;43.408;24.626;2023-07-13T13:39:47;52.60;29.80
8313;DHT22;4194;43.408;24.626;2023-07-13T13:42:13;52.10;31.00
8313;DHT22;4194;43.408;24.626;2023-07-13T13:44:39;52.40;30.00
8313;DHT22;4194;43.408;24.626;2023-07-13T13:47:29;52.60;29.20
8313;DHT22;4194;43.408;24.626;2023-07-13T13:49:55;52.70;30.00
8313;DHT22;4194;43.408;24.626;2023-07-13T13:52:20;52.00;30.50
8313;DHT22;4194;43.408;24.626;2023-07-13T13:54:46;51.80;30.90
8313;DHT22;4194;43.408;24.626;2023-07-13T13:57:12;52.40;31.20
8313;DHT22;4194;43.408;24.626;2023-07-13T13:59:38;51.90;29.50
8313;DHT22;4194;43.408;24.626;2023-07-13T14:02:22;52.40;30.00
8313;DHT22;4194;43.408;24.626;2023-07-13T14:04:52;52.10;30.30
8313;DHT22;4194;43.408;24.626;2023-07-13T14:07:19;52.00;29.70
8313;DHT22;4194;43.408;24.626;2023-07-13T14:09:45;52.60;29.60
8313;DHT22;4194;43.408;24.626;2023-07-13T14:12:10;51.80;30.00
8313;DHT22;4194;43.408;24.626;2023-07-13T14:14:37;52.40;29.70
8313;DHT22;4194;43.408;24.626;2023-07-13T14:17:03;53.00;29.30
8313;DHT22;4194;43.408;24.626;2023-07-13T14:19:29;53.10;30.10
8313;DHT22;4194;43.408;24.626;2023-07-13T14:21:55;53.00;30.80
8313;DHT22;4194;43.408;24.626;2023-07-13T14:24:21;53.00;29.80
8313;DHT22;4194;43.408;24.626;2023-07-13T14:26:47;53.60;29.20
8313;DHT22;4194;43.408;24.626;2023-07-13T14:29:15;54.30;29.20
8313;DHT22;4194;43.408;24.626;2023-07-13T14:31:43;54.30;28.50
8313;DHT22;4194;43.408;24.626;2023-07-13T14:34:12;54.60;28.80
8313;DHT22;4194;43.408;24.626;2023-07-13T14:36:48;53.90;28.40
8313;DHT22;4194;43.408;24.626;2023-07-13T14:39:23;54.20;28.80
8313;DHT22;4194;43.408;24.626;2023-07-13T14:41:55;53.40;28.40
8313;DHT22;4194;43.408;24.626;2023-07-13T14:44:29;55.10;28.60
8313;DHT22;4194;43.408;24.626;2023-07-13T14:46:57;53.90;28.40
8313;DHT22;4194;43.408;24.626;2023-07-13T14:49:39;54.80;28.30
8313;DHT22;4194;43.408;24.626;2023-07-13T14:52:12;54.80;29.10
8313;DHT22;4194;43.408;24.626;2023-07-13T14:54:39;55.20;28.30
8313;DHT22;4194;43.408;24.626;2023-07-13T14:57:14;56.10;28.50
8313;DHT22;4194;43.408;24.626;2023-07-13T14:59:41;55.50;27.80
8313;DHT22;4194;43.408;24.626;2023-07-13T15:02:31;53.90;28.20
8313;DHT22;4194;43.408;24.626;2023-07-13T15:04:57;53.00;29.00
8313;DHT22;4194;43.408;24.626;2023-07-13T15:07:24;53.50;28.80
8313;DHT22;4194;43.408;24.626;2023-07-13T15:09:50;53.70;29.00
8313;DHT22;4194;43.408;24.626;2023-07-13T15:12:18;54.30;28.70
8313;DHT22;4194;43.408;24.626;2023-07-13T15:14:44;54.60;28.20
8313;DHT22;4194;43.408;24.626;2023-07-13T15:17:27;54.50;27.90
8313;DHT22;4194;43.408;24.626;2023-07-13T15:19:57;54.30;27.80
8313;DHT22;4194;43.408;24.626;2023-07-13T15:22:22;53.40;27.50
8313;DHT22;4194;43.408;24.626;2023-07-13T15:24:48;53.50;28.20
8313;DHT22;4194;43.408;24.626;2023-07-13T15:27:14;52.70;28.00
8313;DHT22;4194;43.408;24.626;2023-07-13T15:29:40;51.10;29.00
8313;DHT22;4194;43.408;24.626;2023-07-13T15:32:17;49.80;29.80
8313;DHT22;4194;43.408;24.626;2023-07-13T15:34:44;48.50;29.80
8313;DHT22;4194;43.408;24.626;2023-07-13T15:37:15;47.80;30.70
8313;DHT22;4194;43.408;24.626;2023-07-13T15:42:16;47.10;31.00
8313;DHT22;4194;43.408;24.626;2023-07-13T15:44:42;47.70;32.10
8313;DHT22;4194;43.408;24.626;2023-07-13T15:47:12;47.00;33.00
8313;DHT22;4194;43.408;24.626;2023-07-13T15:49:39;46.50;32.20
8313;DHT22;4194;43.408;24.626;2023-07-13T15:52:05;45.70;32.20
8313;DHT22;4194;43.408;24.626;2023-07-13T15:54:35;46.90;33.70
8313;DHT22;4194;43.408;24.626;2023-07-13T15:57:02;46.10;33.80
8313;DHT22;4194;43.408;24.626;2023-07-13T15:59:27;46.50;34.70
8313;DHT22;4194;43.408;24.626;2023-07-13T16:01:53;46.20;34.80
8313;DHT22;4194;43.408;24.626;2023-07-13T16:04:19;45.60;34.30
8313;DHT22;4194;43.408;24.626;2023-07-13T16:06:45;45.30;34.90
8313;DHT22;4194;43.408;24.626;2023-07-13T16:09:19;45.40;36.40
8313;DHT22;4194;43.408;24.626;2023-07-13T16:11:47;45.40;36.80
8313;DHT22;4194;43.408;24.626;2023-07-13T16:14:14;44.60;38.10
8313;DHT22;4194;43.408;24.626;2023-07-13T16:16:42;45.10;35.70
8313;DHT22;4194;43.408;24.626;2023-07-13T16:19:09;44.80;36.10
8313;DHT22;4194;43.408;24.626;2023-07-13T16:21:43;45.00;37.20
8313;DHT22;4194;43.408;24.626;2023-07-13T16:24:21;44.50;36.20
8313;DHT22;4194;43.408;24.626;2023-07-13T16:26:48;44.90;37.00
8313;DHT22;4194;43.408;24.626;2023-07-13T16:29:22;44.40;38.10
8313;DHT22;4194;43.408;24.626;2023-07-13T16:32:01;41.60;37.90
8313;DHT22;4194;43.408;24.626;2023-07-13T16:34:29;42.10;39.00
8313;DHT22;4194;43.408;24.626;2023-07-13T16:36:55;40.60;41.00
8313;DHT22;4194;43.408;24.626;2023-07-13T16:39:21;39.60;41.60
8313;DHT22;4194;43.408;24.626;2023-07-13T16:41:54;40.00;42.50
8313;DHT22;4194;43.408;24.626;2023-07-13T16:44:21;39.30;43.20
8313;DHT22;4194;43.408;24.626;2023-07-13T16:46:53;39.20;45.40
8313;DHT22;4194;43.408;24.626;2023-07-13T16:49:28;39.10;47.50
8313;DHT22;4194;43.408;24.626;2023-07-13T16:51:55;38.50;47.60
8313;DHT22;4194;43.408;24.626;2023-07-13T16:54:27;38.70;48.90
8313;DHT22;4194;43.408;24.626;2023-07-13T16:56:57;36.40;49.70
8313;DHT22;4194;43.408;24.626;2023-07-13T16:59:29;36.90;53.20
8313;DHT22;4194;43.408;24.626;2023-07-13T17:01:56;36.30;55.20
8313;DHT22;4194;43.408;24.626;2023-07-13T17:04:26;35.80;57.00
8313;DHT22;4194;43.408;24.626;2023-07-13T17:06:53;35.60;58.10
8313;DHT22;4194;43.408;24.626;2023-07-13T17:09:20;35.60;58.90
8313;DHT22;4194;43.408;24.626;2023-07-13T17:11:49;35.90;58.20
8313;DHT22;4194;43.408;24.626;2023-07-13T17:14:19;34.90;58.40
8313;DHT22;4194;43.408;24.626;2023-07-13T17:16:49;34.80;58.20
8313;DHT22;4194;43.408;24.626;2023-07-13T17:19:18;33.40;59.30
8313;DHT22;4194;43.408;24.626;2023-07-13T17:21:46;35.30;61.60
8313;DHT22;4194;43.408;24.626;2023-07-13T17:24:20;34.20;61.70
8313;DHT22;4194;43.408;24.626;2023-07-13T17:26:47;33.40;61.90
8313;DHT22;4194;43.408;24.626;2023-07-13T17:29:14;34.00;63.20
8313;DHT22;4194;43.408;24.626;2023-07-13T17:31:40;33.70;64.30
8313;DHT22;4194;43.408;24.626;2023-07-13T17:34:13;33.10;64.70
8313;DHT22;4194;43.408;24.626;2023-07-13T17:36:40;33.10;64.70
8313;DHT22;4194;43.408;24.626;2023-07-13T17:39:17;33.50;65.80
8313;DHT22;4194;43.408;24.626;2023-07-13T17:41:44;32.90;66.60
8313;DHT22;4194;43.408;24.626;2023-07-13T17:44:12;32.90;66.90
8313;DHT22;4194;43.408;24.626;2023-07-13T17:46:39;33.00;67.80
8313;DHT22;4194;43.408;24.626;2023-07-13T17:49:05;32.80;67.50
8313;DHT22;4194;43.408;24.626;2023-07-13T17:51:32;32.80;68.30
8313;DHT22;4194;43.408;24.626;2023-07-13T17:56:25;32.50;68.60
8313;DHT22;4194;43.408;24.626;2023-07-13T17:58:51;32.40;68.80
8313;DHT22;4194;43.408;24.626;2023-07-13T18:01:21;32.50;69.50
8313;DHT22;4194;43.408;24.626;2023-07-13T18:03:49;32.40;69.30
8313;DHT22;4194;43.408;24.626;2023-07-13T18:06:26;33.40;70.80
8313;DHT22;4194;43.408;24.626;2023-07-13T18:08:56;32.10;70.40
8313;DHT22;4194;43.408;24.626;2023-07-13T18:11:22;30.80;69.80
8313;DHT22;4194;43.408;24.626;2023-07-13T18:13:50;31.90;71.30
8313;DHT22;4194;43.408;24.626;2023-07-13T18:16:18;31.90;70.90
8313;DHT22;4194;43.408;24.626;2023-07-13T18:18:45;31.80;71.20
8313;DHT22;4194;43.408;24.626;2023-07-13T18:21:12;32.00;72.70
8313;DHT22;4194;43.408;24.626;2023-07-13T18:23:38;30.40;72.20
8313;DHT22;4194;43.408;24.626;2023-07-13T18:26:08;32.10;73.10
8313;DHT22;4194;43.408;24.626;2023-07-13T18:28:34;31.40;73.30
8313;DHT22;4194;43.408;24.626;2023-07-13T18:31:01;31.50;74.00
8313;DHT22;4194;43.408;24.626;2023-07-13T18:33:32;31.30;75.50
8313;DHT22;4194;43.408;24.626;2023-07-13T18:36:01;30.30;74.90
8313;DHT22;4194;43.408;24.626;2023-07-13T18:38:28;31.60;76.90
8313;DHT22;4194;43.408;24.626;2023-07-13T18:40:55;31.00;76.00
8313;DHT22;4194;43.408;24.626;2023-07-13T18:43:22;31.70;76.00
8313;DHT22;4194;43.408;24.626;2023-07-13T18:46:00;30.90;74.20
8313;DHT22;4194;43.408;24.626;2023-07-13T18:48:32;30.10;74.00
8313;DHT22;4194;43.408;24.626;2023-07-13T18:50:58;30.70;74.00
8313;DHT22;4194;43.408;24.626;2023-07-13T18:53:24;30.90;75.80
8313;DHT22;4194;43.408;24.626;2023-07-13T18:55:52;31.70;75.70
8313;DHT22;4194;43.408;24.626;2023-07-13T18:58:17;30.00;74.20
8313;DHT22;4194;43.408;24.626;2023-07-13T19:00:47;31.10;76.30
8313;DHT22;4194;43.408;24.626;2023-07-13T19:03:19;30.80;76.70
8313;DHT22;4194;43.408;24.626;2023-07-13T19:05:49;30.50;77.90
8313;DHT22;4194;43.408;24.626;2023-07-13T19:08:22;31.30;78.80
8313;DHT22;4194;43.408;24.626;2023-07-13T19:10:50;29.70;78.50
8313;DHT22;4194;43.408;24.626;2023-07-13T19:13:20;30.60;78.70
8313;DHT22;4194;43.408;24.626;2023-07-13T19:15:46;30.20;78.40
8313;DHT22;4194;43.408;24.626;2023-07-13T19:18:18;30.30;79.10
8313;DHT22;4194;43.408;24.626;2023-07-13T19:20:45;30.30;80.00
8313;DHT22;4194;43.408;24.626;2023-07-13T19:23:18;30.20;79.00
8313;DHT22;4194;43.408;24.626;2023-07-13T19:25:47;30.20;79.60
8313;DHT22;4194;43.408;24.626;2023-07-13T19:28:39;30.30;80.40
8313;DHT22;4194;43.408;24.626;2023-07-13T19:31:16;30.10;80.70
8313;DHT22;4194;43.408;24.626;2023-07-13T19:33:42;30.00;81.10
8313;DHT22;4194;43.408;24.626;2023-07-13T19:36:14;30.00;81.60
8313;DHT22;4194;43.408;24.626;2023-07-13T19:38:41;29.90;81.30
8313;DHT22;4194;43.408;24.626;2023-07-13T19:41:15;29.90;82.30
8313;DHT22;4194;43.408;24.626;2023-07-13T19:43:41;29.80;82.60
8313;DHT22;4194;43.408;24.626;2023-07-13T19:46:29;29.90;82.50
8313;DHT22;4194;43.408;24.626;2023-07-13T19:48:57;29.80;82.80
8313;DHT22;4194;43.408;24.626;2023-07-13T19:51:24;29.70;83.60
8313;DHT22;4194;43.408;24.626;2023-07-13T19:53:53;29.60;83.20
8313;DHT22;4194;43.408;24.626;2023-07-13T19:56:20;29.60;84.10
8313;DHT22;4194;43.408;24.626;2023-07-13T19:58:46;29.60;84.80
8313;DHT22;4194;43.408;24.626;2023-07-13T20:01:12;29.50;85.20
8313;DHT22;4194;43.408;24.626;2023-07-13T20:03:38;29.80;86.10
8313;DHT22;4194;43.408;24.626;2023-07-13T20:06:30;29.50;86.50
8313;DHT22;4194;43.408;24.626;2023-07-13T20:08:59;29.30;86.60
8313;DHT22;4194;43.408;24.626;2023-07-13T20:11:26;28.60;86.60
8313;DHT22;4194;43.408;24.626;2023-07-13T20:13:52;29.20;87.70
8313;DHT22;4194;43.408;24.626;2023-07-13T20:16:18;29.20;88.50
8313;DHT22;4194;43.408;24.626;2023-07-13T20:18:45;29.10;89.10
8313;DHT22;4194;43.408;24.626;2023-07-13T20:21:15;29.30;90.10
8313;DHT22;4194;43.408;24.626;2023-07-13T20:23:42;28.70;90.20
8313;DHT22;4194;43.408;24.626;2023-07-13T20:26:08;28.70;90.70
8313;DHT22;4194;43.408;24.626;2023-07-13T20:28:35;29.10;91.40
8313;DHT22;4194;43.408;24.626;2023-07-13T20:31:01;28.80;91.60
8313;DHT22;4194;43.408;24.626;2023-07-13T20:33:28;28.90;91.50
8313;DHT22;4194;43.408;24.626;2023-07-13T20:36:05;28.90;91.90
8313;DHT22;4194;43.408;24.626;2023-07-13T20:38:33;28.90;91.90
8313;DHT22;4194;43.408;24.626;2023-07-13T20:40:59;29.00;92.10
8313;DHT22;4194;43.408;24.626;2023-07-13T20:43:24;28.80;92.30
8313;DHT22;4194;43.408;24.626;2023-07-13T20:45:59;28.80;92.60
8313;DHT22;4194;43.408;24.626;2023-07-13T20:48:37;28.50;93.00
8313;DHT22;4194;43.408;24.626;2023-07-13T20:51:05;28.60;93.40
8313;DHT22;4194;43.408;24.626;2023-07-13T20:53:33;28.40;93.80
8313;DHT22;4194;43.408;24.626;2023-07-13T20:55:59;28.60;94.20
8313;DHT22;4194;43.408;24.626;2023-07-13T20:58:25;27.70;94.10
8313;DHT22;4194;43.408;24.626;2023-07-13T21:00:51;28.40;94.70
8313;DHT22;4194;43.408;24.626;2023-07-13T21:03:23;28.40;95.10
8313;DHT22;4194;43.408;24.626;2023-07-13T21:05:49;28.20;95.50
8313;DHT22;4194;43.408;24.626;2023-07-13T21:08:17;28.30;95.90